createdAt,value
2023-03-23T15:59:06.309Z,97984.19
2023-03-23T16:01:33.174Z,97979.34
2023-03-23T16:04:07.467Z,97960.09
2023-03-23T16:06:35.772Z,97978.34
2023-03-23T16:09:04.449Z,97977.81
2023-03-23T16:11:33.619Z,97984.06
2023-03-23T16:14:01.913Z,97983.63
2023-03-23T16:16:39.817Z,97983.47
2023-03-23T16:19:07.470Z,97977.88
2023-03-23T16:21:34.484Z,97968.47
2023-03-23T16:24:01.505Z,97995.22
2023-03-23T16:26:28.222Z,97993.00
2023-03-23T16:29:02.683Z,98002.00
2023-03-23T16:31:33.070Z,98005.59
2023-03-23T16:33:59.732Z,97988.63
2023-03-23T16:36:26.513Z,98010.22
2023-03-23T16:38:54.806Z,97977.00
2023-03-23T16:41:21.674Z,97997.25
2023-03-23T16:43:48.257Z,98001.72
2023-03-23T16:46:15.103Z,97997.13
2023-03-23T16:48:41.940Z,98003.88
2023-03-23T16:51:09.584Z,97998.16
2023-03-23T16:53:37.826Z,98006.84
2023-03-23T16:56:07.158Z,97999.84
2023-03-23T16:58:33.845Z,98009.94
2023-03-23T17:01:01.562Z,98011.72
2023-03-23T17:03:28.292Z,98005.63
2023-03-23T17:05:55.063Z,98007.44
2023-03-23T17:08:21.645Z,98011.59
2023-03-23T17:10:49.249Z,98008.00
2023-03-23T17:13:19.360Z,98007.53
2023-03-23T17:15:47.648Z,98007.41
2023-03-23T17:18:17.641Z,98014.13
2023-03-23T17:20:45.464Z,98022.50
2023-03-23T17:23:12.059Z,98020.63
2023-03-23T17:25:39.034Z,98016.69
2023-03-23T17:28:07.169Z,98027.63
2023-03-23T17:30:35.417Z,98024.44
2023-03-23T17:33:02.225Z,98034.44
2023-03-23T17:35:29.028Z,98033.22
2023-03-23T17:37:55.753Z,98026.97
2023-03-23T17:40:26.613Z,98030.56
2023-03-23T17:42:53.868Z,98036.06
2023-03-23T17:45:21.426Z,98034.38
2023-03-23T17:47:48.424Z,98037.59
2023-03-23T17:50:15.870Z,98022.78
2023-03-23T17:52:43.687Z,98041.88
2023-03-23T17:55:11.350Z,98046.44
2023-03-23T17:57:38.310Z,98042.16
2023-03-23T18:00:08.381Z,98045.78
2023-03-23T18:02:36.591Z,98048.75
2023-03-23T18:05:03.724Z,98046.69
2023-03-23T18:07:31.881Z,98049.88
2023-03-23T18:10:00.780Z,98050.63
2023-03-23T18:12:27.504Z,98053.56
2023-03-23T18:15:00.227Z,98059.59
2023-03-23T18:17:27.115Z,98064.84
2023-03-23T18:19:54.440Z,98051.63
2023-03-23T18:22:21.689Z,98069.88
2023-03-23T18:24:48.667Z,98046.16
2023-03-23T18:27:15.861Z,98065.09
2023-03-23T18:29:42.643Z,98070.00
2023-03-23T18:32:10.524Z,98067.72
2023-03-23T18:34:41.636Z,98075.88
2023-03-23T18:37:10.181Z,98067.03
2023-03-23T18:39:38.333Z,98066.75
2023-03-23T18:42:06.297Z,98080.53
2023-03-23T18:44:33.041Z,98076.97
2023-03-23T18:46:59.797Z,98075.31
2023-03-23T18:49:28.444Z,98079.63
2023-03-23T18:51:55.428Z,98076.53
2023-03-23T18:54:22.192Z,98084.34
2023-03-23T18:56:48.997Z,98063.13
2023-03-23T18:59:15.899Z,98088.00
2023-03-23T19:01:42.682Z,98078.00
2023-03-23T19:04:09.573Z,98078.72
2023-03-23T19:06:36.399Z,98079.69
2023-03-23T19:09:03.179Z,98080.22
2023-03-23T19:11:30.157Z,98090.03
2023-03-23T19:16:26.965Z,98084.50
2023-03-23T19:18:53.659Z,98081.63
2023-03-23T19:21:24.975Z,98078.28
2023-03-23T19:23:52.591Z,98084.50
2023-03-23T19:26:27.620Z,98080.88
2023-03-23T19:29:24.586Z,98082.44
2023-03-23T19:31:43.272Z,98094.38
2023-03-23T19:34:12.051Z,98092.00
2023-03-23T19:36:39.547Z,98102.78
2023-03-23T19:39:07.619Z,98105.69
2023-03-23T19:41:34.819Z,98100.38
2023-03-23T19:44:01.426Z,98092.28
2023-03-23T19:46:30.437Z,98094.84
2023-03-23T19:48:58.462Z,98082.41
2023-03-23T19:51:25.058Z,98079.16
2023-03-23T19:53:52.066Z,98082.66
2023-03-23T19:56:23.677Z,98077.56
2023-03-23T19:58:51.092Z,98079.16
2023-03-23T20:01:18.216Z,98075.16
2023-03-23T20:03:45.582Z,98079.53
2023-03-23T20:06:15.228Z,98083.59
2023-03-23T20:08:45.560Z,98083.94
2023-03-23T20:11:15.678Z,98084.09
2023-03-23T20:13:43.571Z,98079.22
2023-03-23T20:16:10.931Z,98086.00
2023-03-23T20:18:38.322Z,98078.47
2023-03-23T20:21:07.977Z,98085.25
2023-03-23T20:23:36.836Z,98100.88
2023-03-23T20:26:17.098Z,98094.88
2023-03-23T20:28:45.756Z,98093.25
2023-03-23T20:31:18.988Z,98090.22
2023-03-23T20:34:02.445Z,98092.00
2023-03-23T20:36:35.668Z,98098.47
2023-03-23T20:39:06.550Z,98101.78
2023-03-23T20:41:36.237Z,98103.38
2023-03-23T20:44:04.980Z,98103.97
2023-03-23T20:46:32.491Z,98104.63
2023-03-23T20:48:59.321Z,98097.72
2023-03-23T20:51:26.201Z,98107.03
2023-03-23T20:53:53.377Z,98092.78
2023-03-23T20:56:20.149Z,98116.94
2023-03-23T20:58:47.781Z,98117.09
2023-03-23T21:01:15.435Z,98127.91
2023-03-23T21:03:42.738Z,98119.56
2023-03-23T21:06:10.821Z,98115.03
2023-03-23T21:08:40.357Z,98120.28
2023-03-23T21:11:09.664Z,98118.81
2023-03-23T21:13:36.791Z,98111.47
2023-03-23T21:16:04.120Z,98110.34
2023-03-23T21:18:31.735Z,98101.66
2023-03-23T21:21:00.342Z,98098.69
2023-03-23T21:23:29.726Z,98083.47
2023-03-23T21:26:06.106Z,98104.28
2023-03-23T21:28:32.853Z,98109.16
2023-03-23T21:31:04.961Z,98103.66
2023-03-23T21:33:32.141Z,98112.13
2023-03-23T21:36:00.951Z,98121.84
2023-03-23T21:38:28.245Z,98120.47
2023-03-23T21:40:55.620Z,98119.09
2023-03-23T21:43:27.210Z,98107.56
2023-03-23T21:45:56.301Z,98101.84
2023-03-23T21:48:24.134Z,98100.25
2023-03-23T21:50:51.188Z,98099.13
2023-03-23T21:53:18.363Z,98105.03
2023-03-23T21:55:51.129Z,98106.41
2023-03-23T21:58:19.340Z,98098.91
2023-03-23T22:00:53.771Z,98095.84
2023-03-23T22:03:25.002Z,98099.13
2023-03-23T22:05:57.054Z,98089.00
2023-03-23T22:08:26.359Z,98078.28
2023-03-23T22:11:01.282Z,98088.88
2023-03-23T22:13:30.512Z,98070.84
2023-03-23T22:15:59.046Z,98087.25
2023-03-23T22:18:26.156Z,98089.84
2023-03-23T22:20:53.363Z,98095.13
2023-03-23T22:23:20.258Z,98096.72
2023-03-23T22:25:47.342Z,98101.50
2023-03-23T22:28:14.199Z,98097.91
2023-03-23T22:30:41.162Z,98105.88
2023-03-23T22:33:08.119Z,98102.59
2023-03-23T22:35:34.962Z,98098.38
2023-03-23T22:38:03.279Z,98081.44
2023-03-23T22:40:32.829Z,98076.16
2023-03-23T22:42:59.755Z,98070.78
2023-03-23T22:45:27.823Z,98057.78
2023-03-23T22:47:54.882Z,98070.03
2023-03-23T22:50:24.108Z,98089.06
2023-03-23T22:52:50.952Z,98091.16
2023-03-23T22:55:17.904Z,98093.50
2023-03-23T22:57:44.910Z,98096.63
2023-03-23T23:00:15.809Z,98084.53
2023-03-23T23:02:43.716Z,98096.16
2023-03-23T23:05:11.947Z,98094.56
2023-03-23T23:07:39.330Z,98082.41
2023-03-23T23:10:06.317Z,98092.75
2023-03-23T23:12:35.198Z,98096.88
2023-03-23T23:15:07.128Z,98078.94
2023-03-23T23:17:34.970Z,98088.75
2023-03-23T23:20:05.597Z,98071.41
2023-03-23T23:22:33.246Z,98047.88
2023-03-23T23:25:00.661Z,98051.09
2023-03-23T23:27:27.575Z,98041.88
2023-03-23T23:29:54.378Z,98032.88
2023-03-23T23:32:21.423Z,98049.88
2023-03-23T23:34:52.819Z,98066.06
2023-03-23T23:37:19.711Z,98067.75
2023-03-23T23:39:46.919Z,98062.56
2023-03-23T23:42:13.579Z,98060.97
2023-03-23T23:44:40.304Z,98065.78
2023-03-23T23:47:07.148Z,98061.75
2023-03-23T23:49:34.334Z,98076.66
2023-03-23T23:52:01.054Z,98071.41
2023-03-23T23:54:29.942Z,98066.41
2023-03-23T23:57:01.173Z,98060.59
2023-03-23T23:59:29.155Z,98065.69
